sensor_id;sensor_type;location;lat;lon;timestamp;temperature;humidity
24410;DHT22;12543;53.364;-1.504;2023-02-13T00:00:34;7.40;99.90
24410;DHT22;12543;53.364;-1.504;2023-02-13T00:03:01;7.30;99.90
24410;DHT22;12543;53.364;-1.504;2023-02-13T00:05:29;7.30;99.90
24410;DHT22;12543;53.364;-1.504;2023-02-13T00:07:56;7.30;99.90
24410;DHT22;12543;53.364;-1.504;2023-02-13T00:10:23;7.40;99.90
24410;DHT22;12543;53.364;-1.504;2023-02-13T00:12:50;7.30;99.90
24410;DHT22;12543;53.364;-1.504;2023-02-13T00:15:17;7.30;99.90
24410;DHT22;12543;53.364;-1.504;2023-02-13T00:17:45;7.30;99.90
24410;DHT22;12543;53.364;-1.504;2023-02-13T00:20:12;7.30;99.90
24410;DHT22;12543;53.364;-1.504;2023-02-13T00:22:40;7.30;99.90
24410;DHT22;12543;53.364;-1.504;2023-02-13T00:25:07;7.30;99.90
24410;DHT22;12543;53.364;-1.504;2023-02-13T00:27:34;7.30;99.90
24410;DHT22;12543;53.364;-1.504;2023-02-13T00:30:03;7.30;99.90
24410;DHT22;12543;53.364;-1.504;2023-02-13T00:32:30;7.30;99.90
24410;DHT22;12543;53.364;-1.504;2023-02-13T00:34:57;7.30;99.90
24410;DHT22;12543;53.364;-1.504;2023-02-13T00:37:25;7.30;99.90
24410;DHT22;12543;53.364;-1.504;2023-02-13T00:39:52;7.30;99.90
24410;DHT22;12543;53.364;-1.504;2023-02-13T00:42:19;7.30;99.90
24410;DHT22;12543;53.364;-1.504;2023-02-13T00:44:49;7.30;99.90
24410;DHT22;12543;53.364;-1.504;2023-02-13T00:47:17;7.30;99.90
24410;DHT22;12543;53.364;-1.504;2023-02-13T00:49:45;7.30;99.90
24410;DHT22;12543;53.364;-1.504;2023-02-13T00:52:12;7.40;99.90
24410;DHT22;12543;53.364;-1.504;2023-02-13T00:54:39;7.40;99.90
24410;DHT22;12543;53.364;-1.504;2023-02-13T00:57:06;7.40;99.90
24410;DHT22;12543;53.364;-1.504;2023-02-13T00:59:33;7.40;99.90
24410;DHT22;12543;53.364;-1.504;2023-02-13T01:02:00;7.40;99.90
24410;DHT22;12543;53.364;-1.504;2023-02-13T01:04:27;7.40;99.90
24410;DHT22;12543;53.364;-1.504;2023-02-13T01:06:56;7.40;99.90
24410;DHT22;12543;53.364;-1.504;2023-02-13T01:09:23;7.40;99.90
24410;DHT22;12543;53.364;-1.504;2023-02-13T01:11:51;7.40;99.90
24410;DHT22;12543;53.364;-1.504;2023-02-13T01:14:18;7.40;99.90
24410;DHT22;12543;53.364;-1.504;2023-02-13T01:16:48;7.40;99.90
24410;DHT22;12543;53.364;-1.504;2023-02-13T01:19:15;7.40;99.90
24410;DHT22;12543;53.364;-1.504;2023-02-13T01:21:42;7.40;99.90
24410;DHT22;12543;53.364;-1.504;2023-02-13T01:24:10;7.40;99.90
24410;DHT22;12543;53.364;-1.504;2023-02-13T01:26:37;7.40;99.90
24410;DHT22;12543;53.364;-1.504;2023-02-13T01:29:05;7.40;99.90
24410;DHT22;12543;53.364;-1.504;2023-02-13T01:31:32;7.40;99.90
24410;DHT22;12543;53.364;-1.504;2023-02-13T01:33:59;7.40;99.90
24410;DHT22;12543;53.364;-1.504;2023-02-13T01:36:27;7.40;99.90
24410;DHT22;12543;53.364;-1.504;2023-02-13T01:38:56;7.40;99.90
24410;DHT22;12543;53.364;-1.504;2023-02-13T01:41:25;7.40;99.90
24410;DHT22;12543;53.364;-1.504;2023-02-13T01:43:54;7.40;99.90
24410;DHT22;12543;53.364;-1.504;2023-02-13T01:49:02;7.40;99.90
24410;DHT22;12543;53.364;-1.504;2023-02-13T01:51:33;7.40;99.90
24410;DHT22;12543;53.364;-1.504;2023-02-13T01:54:11;7.40;99.90
24410;DHT22;12543;53.364;-1.504;2023-02-13T01:56:47;7.40;99.90
24410;DHT22;12543;53.364;-1.504;2023-02-13T01:59:21;7.40;99.90
24410;DHT22;12543;53.364;-1.504;2023-02-13T02:01:52;7.40;99.90
24410;DHT22;12543;53.364;-1.504;2023-02-13T02:04:26;7.40;99.90
24410;DHT22;12543;53.364;-1.504;2023-02-13T02:07:14;7.40;99.90
24410;DHT22;12543;53.364;-1.504;2023-02-13T02:09:43;7.40;99.90
24410;DHT22;12543;53.364;-1.504;2023-02-13T02:12:28;7.40;99.90
24410;DHT22;12543;53.364;-1.504;2023-02-13T02:14:59;7.40;99.90
24410;DHT22;12543;53.364;-1.504;2023-02-13T02:17:30;7.40;99.90
24410;DHT22;12543;53.364;-1.504;2023-02-13T02:22:53;7.30;99.90
24410;DHT22;12543;53.364;-1.504;2023-02-13T02:25:57;7.30;99.90
24410;DHT22;12543;53.364;-1.504;2023-02-13T02:43:17;7.30;99.90
24410;DHT22;12543;53.364;-1.504;2023-02-13T02:49:12;7.40;99.90
24410;DHT22;12543;53.364;-1.504;2023-02-13T02:52:20;7.40;99.90
24410;DHT22;12543;53.364;-1.504;2023-02-13T02:58:19;7.40;99.90
24410;DHT22;12543;53.364;-1.504;2023-02-13T03:01:10;7.40;99.90
24410;DHT22;12543;53.364;-1.504;2023-02-13T03:03:59;7.40;99.90
24410;DHT22;12543;53.364;-1.504;2023-02-13T03:06:50;7.40;99.90
24410;DHT22;12543;53.364;-1.504;2023-02-13T03:09:23;7.40;99.90
24410;DHT22;12543;53.364;-1.504;2023-02-13T03:12:14;7.40;99.90
24410;DHT22;12543;53.364;-1.504;2023-02-13T03:15:02;7.40;99.90
24410;DHT22;12543;53.364;-1.504;2023-02-13T03:17:29;7.30;99.90
24410;DHT22;12543;53.364;-1.504;2023-02-13T03:24:03;7.30;99.90
24410;DHT22;12543;53.364;-1.504;2023-02-13T03:29:36;7.30;99.90
24410;DHT22;12543;53.364;-1.504;2023-02-13T03:38:57;7.30;99.90
24410;DHT22;12543;53.364;-1.504;2023-02-13T03:41:31;7.30;99.90
24410;DHT22;12543;53.364;-1.504;2023-02-13T03:46:40;7.30;99.90
24410;DHT22;12543;53.364;-1.504;2023-02-13T03:49:15;7.30;99.90
24410;DHT22;12543;53.364;-1.504;2023-02-13T03:52:09;7.30;99.90
24410;DHT22;12543;53.364;-1.504;2023-02-13T03:54:50;7.20;99.90
24410;DHT22;12543;53.364;-1.504;2023-02-13T03:57:38;7.20;99.90
24410;DHT22;12543;53.364;-1.504;2023-02-13T04:00:27;7.20;99.90
24410;DHT22;12543;53.364;-1.504;2023-02-13T04:03:01;7.20;99.90
24410;DHT22;12543;53.364;-1.504;2023-02-13T04:05:38;7.20;99.90
24410;DHT22;12543;53.364;-1.504;2023-02-13T04:08:06;7.20;99.90
24410;DHT22;12543;53.364;-1.504;2023-02-13T04:10:36;7.20;99.90
24410;DHT22;12543;53.364;-1.504;2023-02-13T04:13:24;7.20;99.90
24410;DHT22;12543;53.364;-1.504;2023-02-13T04:15:57;7.10;99.90
24410;DHT22;12543;53.364;-1.504;2023-02-13T04:18:31;7.10;99.90
24410;DHT22;12543;53.364;-1.504;2023-02-13T04:21:03;7.10;99.90
24410;DHT22;12543;53.364;-1.504;2023-02-13T04:23:31;7.10;99.90
24410;DHT22;12543;53.364;-1.504;2023-02-13T04:26:01;7.10;99.90
24410;DHT22;12543;53.364;-1.504;2023-02-13T04:28:29;7.10;99.90
24410;DHT22;12543;53.364;-1.504;2023-02-13T04:30:56;7.10;99.90
24410;DHT22;12543;53.364;-1.504;2023-02-13T04:33:24;7.10;99.90
24410;DHT22;12543;53.364;-1.504;2023-02-13T04:35:51;7.10;99.90
24410;DHT22;12543;53.364;-1.504;2023-02-13T04:38:18;7.10;99.90
24410;DHT22;12543;53.364;-1.504;2023-02-13T04:40:45;7.10;99.90
24410;DHT22;12543;53.364;-1.504;2023-02-13T04:43:12;7.10;99.90
24410;DHT22;12543;53.364;-1.504;2023-02-13T04:45:39;7.10;99.90
24410;DHT22;12543;53.364;-1.504;2023-02-13T04:48:07;7.10;99.90
24410;DHT22;12543;53.364;-1.504;2023-02-13T04:50:34;7.10;99.90
24410;DHT22;12543;53.364;-1.504;2023-02-13T04:53:01;7.10;99.90
24410;DHT22;12543;53.364;-1.504;2023-02-13T04:55:28;7.10;99.90
24410;DHT22;12543;53.364;-1.504;2023-02-13T04:57:56;7.10;99.90
24410;DHT22;12543;53.364;-1.504;2023-02-13T05:00:25;7.10;99.90
24410;DHT22;12543;53.364;-1.504;2023-02-13T05:02:53;7.10;99.90
24410;DHT22;12543;53.364;-1.504;2023-02-13T05:05:25;7.10;99.90
24410;DHT22;12543;53.364;-1.504;2023-02-13T05:07:53;7.10;99.90
24410;DHT22;12543;53.364;-1.504;2023-02-13T05:10:20;7.10;99.90
24410;DHT22;12543;53.364;-1.504;2023-02-13T05:12:47;7.10;99.90
24410;DHT22;12543;53.364;-1.504;2023-02-13T05:15:14;7.10;99.90
24410;DHT22;12543;53.364;-1.504;2023-02-13T05:17:45;7.10;99.90
24410;DHT22;12543;53.364;-1.504;2023-02-13T05:20:13;7.10;99.90
24410;DHT22;12543;53.364;-1.504;2023-02-13T05:22:49;7.10;99.90
24410;DHT22;12543;53.364;-1.504;2023-02-13T05:25:37;7.10;99.90
24410;DHT22;12543;53.364;-1.504;2023-02-13T05:28:04;7.10;99.90
24410;DHT22;12543;53.364;-1.504;2023-02-13T05:30:51;7.10;99.90
24410;DHT22;12543;53.364;-1.504;2023-02-13T05:33:19;7.10;99.90
24410;DHT22;12543;53.364;-1.504;2023-02-13T05:35:46;7.10;99.90
24410;DHT22;12543;53.364;-1.504;2023-02-13T05:38:13;7.10;99.90
24410;DHT22;12543;53.364;-1.504;2023-02-13T05:40:40;7.10;99.90
24410;DHT22;12543;53.364;-1.504;2023-02-13T05:43:07;7.10;99.90
24410;DHT22;12543;53.364;-1.504;2023-02-13T05:45:34;7.00;99.90
24410;DHT22;12543;53.364;-1.504;2023-02-13T05:48:01;7.00;99.90
24410;DHT22;12543;53.364;-1.504;2023-02-13T05:50:28;7.00;99.90
24410;DHT22;12543;53.364;-1.504;2023-02-13T05:52:55;7.00;99.90
24410;DHT22;12543;53.364;-1.504;2023-02-13T05:55:22;7.00;99.90
24410;DHT22;12543;53.364;-1.504;2023-02-13T05:57:49;7.00;99.90
24410;DHT22;12543;53.364;-1.504;2023-02-13T06:00:21;7.00;99.90
24410;DHT22;12543;53.364;-1.504;2023-02-13T06:02:48;7.00;99.90
24410;DHT22;12543;53.364;-1.504;2023-02-13T06:05:15;7.00;99.90
24410;DHT22;12543;53.364;-1.504;2023-02-13T06:07:42;6.90;99.90
24410;DHT22;12543;53.364;-1.504;2023-02-13T06:10:10;7.00;99.90
24410;DHT22;12543;53.364;-1.504;2023-02-13T06:12:37;7.00;99.90
24410;DHT22;12543;53.364;-1.504;2023-02-13T06:15:05;7.00;99.90
24410;DHT22;12543;53.364;-1.504;2023-02-13T06:17:32;6.90;99.90
24410;DHT22;12543;53.364;-1.504;2023-02-13T06:19:59;7.00;99.90
24410;DHT22;12543;53.364;-1.504;2023-02-13T06:22:26;7.00;99.90
24410;DHT22;12543;53.364;-1.504;2023-02-13T06:24:53;7.00;99.90
24410;DHT22;12543;53.364;-1.504;2023-02-13T06:27:20;7.00;99.90
24410;DHT22;12543;53.364;-1.504;2023-02-13T06:29:47;6.90;99.90
24410;DHT22;12543;53.364;-1.504;2023-02-13T06:32:14;6.90;99.90
24410;DHT22;12543;53.364;-1.504;2023-02-13T06:34:41;6.90;99.90
24410;DHT22;12543;53.364;-1.504;2023-02-13T06:37:09;6.90;99.90
24410;DHT22;12543;53.364;-1.504;2023-02-13T06:39:36;6.90;99.90
24410;DHT22;12543;53.364;-1.504;2023-02-13T06:42:03;6.90;99.90
24410;DHT22;12543;53.364;-1.504;2023-02-13T06:44:30;6.90;99.90
24410;DHT22;12543;53.364;-1.504;2023-02-13T06:46:57;7.00;99.90
24410;DHT22;12543;53.364;-1.504;2023-02-13T06:49:24;7.00;99.90
24410;DHT22;12543;53.364;-1.504;2023-02-13T06:51:51;7.00;99.90
24410;DHT22;12543;53.364;-1.504;2023-02-13T06:54:18;7.00;99.90
24410;DHT22;12543;53.364;-1.504;2023-02-13T06:56:45;7.00;99.90
24410;DHT22;12543;53.364;-1.504;2023-02-13T06:59:13;7.00;99.90
24410;DHT22;12543;53.364;-1.504;2023-02-13T07:01:40;7.00;99.90
24410;DHT22;12543;53.364;-1.504;2023-02-13T07:04:07;7.00;99.90
24410;DHT22;12543;53.364;-1.504;2023-02-13T07:06:34;7.00;99.90
24410;DHT22;12543;53.364;-1.504;2023-02-13T07:09:02;7.00;99.90
24410;DHT22;12543;53.364;-1.504;2023-02-13T07:11:30;7.00;99.90
24410;DHT22;12543;53.364;-1.504;2023-02-13T07:13:57;7.00;99.90
24410;DHT22;12543;53.364;-1.504;2023-02-13T07:16:24;7.00;99.90
24410;DHT22;12543;53.364;-1.504;2023-02-13T07:18:51;7.00;99.90
24410;DHT22;12543;53.364;-1.504;2023-02-13T07:21:18;7.00;99.90
24410;DHT22;12543;53.364;-1.504;2023-02-13T07:23:46;7.00;99.90
24410;DHT22;12543;53.364;-1.504;2023-02-13T07:26:13;7.00;99.90
24410;DHT22;12543;53.364;-1.504;2023-02-13T07:28:40;7.00;99.90
24410;DHT22;12543;53.364;-1.504;2023-02-13T07:31:07;7.00;99.90
24410;DHT22;12543;53.364;-1.504;2023-02-13T07:33:34;7.00;99.90
24410;DHT22;12543;53.364;-1.504;2023-02-13T07:36:03;7.00;99.90
24410;DHT22;12543;53.364;-1.504;2023-02-13T07:38:31;7.00;99.90
24410;DHT22;12543;53.364;-1.504;2023-02-13T07:40:59;7.00;99.90
24410;DHT22;12543;53.364;-1.504;2023-02-13T07:43:26;7.00;99.90
24410;DHT22;12543;53.364;-1.504;2023-02-13T07:45:57;7.00;99.90
24410;DHT22;12543;53.364;-1.504;2023-02-13T07:48:25;7.00;99.90
24410;DHT22;12543;53.364;-1.504;2023-02-13T07:50:59;7.00;99.90
24410;DHT22;12543;53.364;-1.504;2023-02-13T07:53:27;7.00;99.90
24410;DHT22;12543;53.364;-1.504;2023-02-13T07:55:54;7.00;99.90
24410;DHT22;12543;53.364;-1.504;2023-02-13T07:58:24;7.00;99.90
24410;DHT22;12543;53.364;-1.504;2023-02-13T08:00:51;7.00;99.90
24410;DHT22;12543;53.364;-1.504;2023-02-13T08:03:18;7.10;99.90
24410;DHT22;12543;53.364;-1.504;2023-02-13T08:05:46;7.10;99.90
24410;DHT22;12543;53.364;-1.504;2023-02-13T08:08:15;7.00;99.90
24410;DHT22;12543;53.364;-1.504;2023-02-13T08:10:42;7.10;99.90
24410;DHT22;12543;53.364;-1.504;2023-02-13T08:13:28;7.00;99.90
24410;DHT22;12543;53.364;-1.504;2023-02-13T08:15:55;7.00;99.90
24410;DHT22;12543;53.364;-1.504;2023-02-13T08:18:23;7.10;99.90
24410;DHT22;12543;53.364;-1.504;2023-02-13T08:20:50;7.10;99.90
24410;DHT22;12543;53.364;-1.504;2023-02-13T08:23:17;7.10;99.90
24410;DHT22;12543;53.364;-1.504;2023-02-13T08:25:44;7.10;99.90
24410;DHT22;12543;53.364;-1.504;2023-02-13T08:28:13;7.10;99.90
24410;DHT22;12543;53.364;-1.504;2023-02-13T08:30:40;7.10;99.90
24410;DHT22;12543;53.364;-1.504;2023-02-13T08:33:08;7.20;99.90
24410;DHT22;12543;53.364;-1.504;2023-02-13T08:35:35;7.20;99.90
24410;DHT22;12543;53.364;-1.504;2023-02-13T08:38:03;7.20;99.90
24410;DHT22;12543;53.364;-1.504;2023-02-13T08:40:31;7.20;99.90
24410;DHT22;12543;53.364;-1.504;2023-02-13T08:42:59;7.30;99.90
24410;DHT22;12543;53.364;-1.504;2023-02-13T08:45:27;7.30;99.90
24410;DHT22;12543;53.364;-1.504;2023-02-13T08:47:58;7.30;99.90
24410;DHT22;12543;53.364;-1.504;2023-02-13T08:50:26;7.30;99.90
24410;DHT22;12543;53.364;-1.504;2023-02-13T08:52:53;7.30;99.90
24410;DHT22;12543;53.364;-1.504;2023-02-13T08:55:20;7.30;99.90
24410;DHT22;12543;53.364;-1.504;2023-02-13T08:57:47;7.30;99.90
24410;DHT22;12543;53.364;-1.504;2023-02-13T09:00:14;7.30;99.90
24410;DHT22;12543;53.364;-1.504;2023-02-13T09:02:42;7.30;99.90
24410;DHT22;12543;53.364;-1.504;2023-02-13T09:05:11;7.30;99.90
24410;DHT22;12543;53.364;-1.504;2023-02-13T09:07:39;7.30;99.90
24410;DHT22;12543;53.364;-1.504;2023-02-13T09:10:07;7.30;99.90
24410;DHT22;12543;53.364;-1.504;2023-02-13T09:12:35;7.30;99.90
24410;DHT22;12543;53.364;-1.504;2023-02-13T09:15:04;7.20;99.90
24410;DHT22;12543;53.364;-1.504;2023-02-13T09:17:35;7.30;99.90
24410;DHT22;12543;53.364;-1.504;2023-02-13T09:20:02;7.20;99.90
24410;DHT22;12543;53.364;-1.504;2023-02-13T09:22:31;7.20;99.90
24410;DHT22;12543;53.364;-1.504;2023-02-13T09:24:58;7.20;99.90
24410;DHT22;12543;53.364;-1.504;2023-02-13T09:27:29;7.20;99.90
24410;DHT22;12543;53.364;-1.504;2023-02-13T09:29:57;7.20;99.90
24410;DHT22;12543;53.364;-1.504;2023-02-13T09:32:24;7.20;99.90
24410;DHT22;12543;53.364;-1.504;2023-02-13T09:34:51;7.20;99.90
24410;DHT22;12543;53.364;-1.504;2023-02-13T09:37:19;7.20;99.90
24410;DHT22;12543;53.364;-1.504;2023-02-13T09:39:45;7.20;99.90
24410;DHT22;12543;53.364;-1.504;2023-02-13T09:42:33;7.20;99.90
24410;DHT22;12543;53.364;-1.504;2023-02-13T09:45:04;7.20;99.90
24410;DHT22;12543;53.364;-1.504;2023-02-13T09:47:39;7.30;99.90
24410;DHT22;12543;53.364;-1.504;2023-02-13T09:50:18;7.30;99.90
24410;DHT22;12543;53.364;-1.504;2023-02-13T09:52:50;7.30;99.90
24410;DHT22;12543;53.364;-1.504;2023-02-13T09:55:44;7.30;99.90
24410;DHT22;12543;53.364;-1.504;2023-02-13T09:59:05;7.30;99.90
24410;DHT22;12543;53.364;-1.504;2023-02-13T10:01:45;7.30;99.90
24410;DHT22;12543;53.364;-1.504;2023-02-13T10:07:10;7.30;99.90
24410;DHT22;12543;53.364;-1.504;2023-02-13T10:13:47;7.30;99.90
24410;DHT22;12543;53.364;-1.504;2023-02-13T10:16:22;7.30;99.90
24410;DHT22;12543;53.364;-1.504;2023-02-13T10:21:40;7.30;99.90
24410;DHT22;12543;53.364;-1.504;2023-02-13T10:24:17;7.30;99.90
24410;DHT22;12543;53.364;-1.504;2023-02-13T10:26:46;7.30;99.90
24410;DHT22;12543;53.364;-1.504;2023-02-13T10:32:24;7.30;99.90
24410;DHT22;12543;53.364;-1.504;2023-02-13T10:34:54;7.40;99.90
24410;DHT22;12543;53.364;-1.504;2023-02-13T10:37:23;7.40;99.90
24410;DHT22;12543;53.364;-1.504;2023-02-13T10:39:51;7.40;99.90
24410;DHT22;12543;53.364;-1.504;2023-02-13T10:50:46;7.50;99.90
24410;DHT22;12543;53.364;-1.504;2023-02-13T10:58:49;7.60;99.90
24410;DHT22;12543;53.364;-1.504;2023-02-13T11:01:34;7.60;99.90
24410;DHT22;12543;53.364;-1.504;2023-02-13T11:04:07;7.70;99.90
24410;DHT22;12543;53.364;-1.504;2023-02-13T11:06:40;7.70;99.90
24410;DHT22;12543;53.364;-1.504;2023-02-13T11:09:08;7.70;99.90
24410;DHT22;12543;53.364;-1.504;2023-02-13T11:11:42;7.80;99.90
24410;DHT22;12543;53.364;-1.504;2023-02-13T11:17:02;7.90;99.90
24410;DHT22;12543;53.364;-1.504;2023-02-13T11:19:39;8.00;99.90
24410;DHT22;12543;53.364;-1.504;2023-02-13T11:22:15;8.00;99.90
24410;DHT22;12543;53.364;-1.504;2023-02-13T11:24:58;8.10;99.90
24410;DHT22;12543;53.364;-1.504;2023-02-13T11:27:31;8.20;99.90
24410;DHT22;12543;53.364;-1.504;2023-02-13T11:30:04;8.30;99.90
24410;DHT22;12543;53.364;-1.504;2023-02-13T11:32:34;8.30;99.90
24410;DHT22;12543;53.364;-1.504;2023-02-13T11:35:28;8.40;99.90
24410;DHT22;12543;53.364;-1.504;2023-02-13T11:40:49;8.40;99.90
24410;DHT22;12543;53.364;-1.504;2023-02-13T11:43:29;8.50;99.90
24410;DHT22;12543;53.364;-1.504;2023-02-13T11:46:10;8.50;99.90
24410;DHT22;12543;53.364;-1.504;2023-02-13T11:48:42;8.50;99.90
24410;DHT22;12543;53.364;-1.504;2023-02-13T11:51:10;8.60;99.90
24410;DHT22;12543;53.364;-1.504;2023-02-13T11:53:38;8.80;99.90
24410;DHT22;12543;53.364;-1.504;2023-02-13T11:58:35;8.90;99.90
24410;DHT22;12543;53.364;-1.504;2023-02-13T12:04:02;8.90;99.90
24410;DHT22;12543;53.364;-1.504;2023-02-13T12:06:30;8.90;99.90
24410;DHT22;12543;53.364;-1.504;2023-02-13T12:08:57;9.00;99.90
24410;DHT22;12543;53.364;-1.504;2023-02-13T12:11:45;9.10;99.90
24410;DHT22;12543;53.364;-1.504;2023-02-13T12:14:38;9.10;99.90
24410;DHT22;12543;53.364;-1.504;2023-02-13T12:17:15;9.20;99.90
24410;DHT22;12543;53.364;-1.504;2023-02-13T12:19:57;9.20;99.90
24410;DHT22;12543;53.364;-1.504;2023-02-13T12:28:22;9.40;99.90
24410;DHT22;12543;53.364;-1.504;2023-02-13T12:39:53;9.50;99.90
24410;DHT22;12543;53.364;-1.504;2023-02-13T12:42:49;9.60;99.90
24410;DHT22;12543;53.364;-1.504;2023-02-13T12:45:39;9.50;99.90
24410;DHT22;12543;53.364;-1.504;2023-02-13T12:59:29;9.40;99.90
24410;DHT22;12543;53.364;-1.504;2023-02-13T13:17:03;9.20;99.90
24410;DHT22;12543;53.364;-1.504;2023-02-13T13:22:20;9.20;99.90
24410;DHT22;12543;53.364;-1.504;2023-02-13T13:25:04;9.20;99.90
24410;DHT22;12543;53.364;-1.504;2023-02-13T13:27:43;9.20;99.90
24410;DHT22;12543;53.364;-1.504;2023-02-13T13:32:47;9.20;99.90
24410;DHT22;12543;53.364;-1.504;2023-02-13T13:35:19;9.20;99.90
24410;DHT22;12543;53.364;-1.504;2023-02-13T13:40:52;9.20;99.90
24410;DHT22;12543;53.364;-1.504;2023-02-13T13:49:34;9.20;99.90
24410;DHT22;12543;53.364;-1.504;2023-02-13T13:54:52;9.10;99.90
24410;DHT22;12543;53.364;-1.504;2023-02-13T13:57:23;9.10;99.90
24410;DHT22;12543;53.364;-1.504;2023-02-13T13:59:57;9.20;99.90
24410;DHT22;12543;53.364;-1.504;2023-02-13T14:07:39;9.10;99.90
24410;DHT22;12543;53.364;-1.504;2023-02-13T14:21:00;9.20;99.90
24410;DHT22;12543;53.364;-1.504;2023-02-13T14:26:40;9.20;99.90
24410;DHT22;12543;53.364;-1.504;2023-02-13T14:31:39;9.20;99.90
24410;DHT22;12543;53.364;-1.504;2023-02-13T14:36:37;9.10;99.90
24410;DHT22;12543;53.364;-1.504;2023-02-13T14:39:19;9.10;99.90
24410;DHT22;12543;53.364;-1.504;2023-02-13T14:50:01;9.20;99.90
24410;DHT22;12543;53.364;-1.504;2023-02-13T14:52:34;9.10;99.90
24410;DHT22;12543;53.364;-1.504;2023-02-13T14:55:07;9.10;99.90
24410;DHT22;12543;53.364;-1.504;2023-02-13T14:57:44;9.10;99.90
24410;DHT22;12543;53.364;-1.504;2023-02-13T15:00:30;9.10;99.90
24410;DHT22;12543;53.364;-1.504;2023-02-13T15:05:52;9.10;99.90
24410;DHT22;12543;53.364;-1.504;2023-02-13T15:08:38;9.10;99.90
24410;DHT22;12543;53.364;-1.504;2023-02-13T15:11:06;9.10;99.90
24410;DHT22;12543;53.364;-1.504;2023-02-13T15:13:54;9.10;99.90
24410;DHT22;12543;53.364;-1.504;2023-02-13T15:16:21;9.00;99.90
24410;DHT22;12543;53.364;-1.504;2023-02-13T15:18:51;9.00;99.90
24410;DHT22;12543;53.364;-1.504;2023-02-13T15:21:20;9.00;99.90
24410;DHT22;12543;53.364;-1.504;2023-02-13T15:23:53;9.00;99.90
24410;DHT22;12543;53.364;-1.504;2023-02-13T15:26:23;9.00;99.90
24410;DHT22;12543;53.364;-1.504;2023-02-13T15:29:18;9.00;99.90
24410;DHT22;12543;53.364;-1.504;2023-02-13T15:31:58;9.00;99.90
24410;DHT22;12543;53.364;-1.504;2023-02-13T15:34:29;9.00;99.90
24410;DHT22;12543;53.364;-1.504;2023-02-13T15:37:00;8.90;99.90
24410;DHT22;12543;53.364;-1.504;2023-02-13T15:39:29;8.90;99.90
24410;DHT22;12543;53.364;-1.504;2023-02-13T15:42:01;8.90;99.90
24410;DHT22;12543;53.364;-1.504;2023-02-13T15:44:31;8.90;99.90
24410;DHT22;12543;53.364;-1.504;2023-02-13T15:47:16;8.90;99.90
24410;DHT22;12543;53.364;-1.504;2023-02-13T15:49:45;8.80;99.90
24410;DHT22;12543;53.364;-1.504;2023-02-13T15:52:30;8.80;99.90
24410;DHT22;12543;53.364;-1.504;2023-02-13T15:54:58;8.80;99.90
24410;DHT22;12543;53.364;-1.504;2023-02-13T15:57:26;8.70;99.90
24410;DHT22;12543;53.364;-1.504;2023-02-13T15:59:54;8.70;99.90
24410;DHT22;12543;53.364;-1.504;2023-02-13T16:02:30;8.70;99.90
24410;DHT22;12543;53.364;-1.504;2023-02-13T16:05:00;8.70;99.90
24410;DHT22;12543;53.364;-1.504;2023-02-13T16:07:27;8.60;99.90
24410;DHT22;12543;53.364;-1.504;2023-02-13T16:10:35;8.60;99.90
24410;DHT22;12543;53.364;-1.504;2023-02-13T16:13:05;8.60;99.90
24410;DHT22;12543;53.364;-1.504;2023-02-13T16:15:34;8.60;99.90
24410;DHT22;12543;53.364;-1.504;2023-02-13T16:18:03;8.50;99.90
24410;DHT22;12543;53.364;-1.504;2023-02-13T16:20:33;8.50;99.90
24410;DHT22;12543;53.364;-1.504;2023-02-13T16:23:05;8.50;99.90
24410;DHT22;12543;53.364;-1.504;2023-02-13T16:25:38;8.50;99.90
24410;DHT22;12543;53.364;-1.504;2023-02-13T16:28:20;8.50;99.90
24410;DHT22;12543;53.364;-1.504;2023-02-13T16:30:52;8.50;99.90
24410;DHT22;12543;53.364;-1.504;2023-02-13T16:33:36;8.40;99.90
24410;DHT22;12543;53.364;-1.504;2023-02-13T16:38:46;8.40;99.90
24410;DHT22;12543;53.364;-1.504;2023-02-13T16:43:59;8.40;99.90
24410;DHT22;12543;53.364;-1.504;2023-02-13T16:54:05;8.30;99.90
24410;DHT22;12543;53.364;-1.504;2023-02-13T16:56:47;8.30;99.90
24410;DHT22;12543;53.364;-1.504;2023-02-13T16:59:41;8.30;99.90
24410;DHT22;12543;53.364;-1.504;2023-02-13T17:05:26;8.20;99.90
24410;DHT22;12543;53.364;-1.504;2023-02-13T17:07:55;8.20;99.90
24410;DHT22;12543;53.364;-1.504;2023-02-13T17:10:35;8.20;99.90
24410;DHT22;12543;53.364;-1.504;2023-02-13T17:15:46;8.10;99.90
24410;DHT22;12543;53.364;-1.504;2023-02-13T17:18:14;8.10;99.90
24410;DHT22;12543;53.364;-1.504;2023-02-13T17:20:42;8.10;99.90
24410;DHT22;12543;53.364;-1.504;2023-02-13T17:23:13;8.10;99.90
24410;DHT22;12543;53.364;-1.504;2023-02-13T17:25:45;8.10;99.90
24410;DHT22;12543;53.364;-1.504;2023-02-13T17:28:20;8.00;99.90
24410;DHT22;12543;53.364;-1.504;2023-02-13T17:30:50;8.10;99.90
24410;DHT22;12543;53.364;-1.504;2023-02-13T17:33:27;8.00;99.90
24410;DHT22;12543;53.364;-1.504;2023-02-13T17:35:55;8.00;99.90
24410;DHT22;12543;53.364;-1.504;2023-02-13T17:38:23;8.00;99.90
24410;DHT22;12543;53.364;-1.504;2023-02-13T17:40:50;7.90;99.90
24410;DHT22;12543;53.364;-1.504;2023-02-13T17:43:18;7.90;99.90
24410;DHT22;12543;53.364;-1.504;2023-02-13T17:45:47;7.90;99.90
24410;DHT22;12543;53.364;-1.504;2023-02-13T17:48:17;7.90;99.90
24410;DHT22;12543;53.364;-1.504;2023-02-13T17:50:48;7.90;99.90
24410;DHT22;12543;53.364;-1.504;2023-02-13T17:53:36;7.90;99.90
24410;DHT22;12543;53.364;-1.504;2023-02-13T17:56:03;7.80;99.90
24410;DHT22;12543;53.364;-1.504;2023-02-13T17:58:30;7.80;99.90
24410;DHT22;12543;53.364;-1.504;2023-02-13T18:00:57;7.80;99.90
24410;DHT22;12543;53.364;-1.504;2023-02-13T18:03:25;7.80;99.90
24410;DHT22;12543;53.364;-1.504;2023-02-13T18:05:52;7.80;99.90
24410;DHT22;12543;53.364;-1.504;2023-02-13T18:08:19;7.80;99.90
24410;DHT22;12543;53.364;-1.504;2023-02-13T18:10:46;7.70;99.90
24410;DHT22;12543;53.364;-1.504;2023-02-13T18:13:16;7.70;99.90
24410;DHT22;12543;53.364;-1.504;2023-02-13T18:15:44;7.70;99.90
24410;DHT22;12543;53.364;-1.504;2023-02-13T18:18:13;7.70;99.90
24410;DHT22;12543;53.364;-1.504;2023-02-13T18:20:42;7.70;99.90
24410;DHT22;12543;53.364;-1.504;2023-02-13T18:23:09;7.70;99.90
24410;DHT22;12543;53.364;-1.504;2023-02-13T18:25:36;7.70;99.90
24410;DHT22;12543;53.364;-1.504;2023-02-13T18:28:04;7.60;99.90
24410;DHT22;12543;53.364;-1.504;2023-02-13T18:30:34;7.60;99.90
24410;DHT22;12543;53.364;-1.504;2023-02-13T18:33:01;7.60;99.90
24410;DHT22;12543;53.364;-1.504;2023-02-13T18:35:30;7.60;99.90
24410;DHT22;12543;53.364;-1.504;2023-02-13T18:37:59;7.50;99.90
24410;DHT22;12543;53.364;-1.504;2023-02-13T18:40:28;7.50;99.90
24410;DHT22;12543;53.364;-1.504;2023-02-13T18:43:07;7.50;99.90
24410;DHT22;12543;53.364;-1.504;2023-02-13T18:46:24;7.50;99.90
24410;DHT22;12543;53.364;-1.504;2023-02-13T18:49:06;7.40;99.90
24410;DHT22;12543;53.364;-1.504;2023-02-13T18:51:34;7.40;99.90
24410;DHT22;12543;53.364;-1.504;2023-02-13T18:54:01;7.40;99.90
24410;DHT22;12543;53.364;-1.504;2023-02-13T18:56:29;7.40;99.90
24410;DHT22;12543;53.364;-1.504;2023-02-13T18:58:56;7.40;99.90
24410;DHT22;12543;53.364;-1.504;2023-02-13T19:01:23;7.40;99.90
24410;DHT22;12543;53.364;-1.504;2023-02-13T19:03:51;7.40;99.90
24410;DHT22;12543;53.364;-1.504;2023-02-13T19:06:21;7.30;99.90
24410;DHT22;12543;53.364;-1.504;2023-02-13T19:08:49;7.40;99.90
24410;DHT22;12543;53.364;-1.504;2023-02-13T19:11:18;7.30;99.90